Home   Weather   Germany   Plauen   Past weeks
Flag for Germany

Past Weather in Plauen, Saxony, Germany — Yesterday and Last 2 Weeks

Currently: 55 °F. Broken clouds. (Weather station: Hof Airport, Germany). See more current weather

Past Weather in Plauen — Graph

°F

Plauen Temperature Yesterday

Maximum temperature yesterday: 82 °F (at 4:50 pm)
Minimum temperature yesterday: 50 °F (at 3:20 am)
Average temperature yesterday: 67 °F

High & Low Weather Summary for the Past Weeks

 TemperatureHumidityPressure
High82 °F (Jun 18, 4:50 pm)100% (Jun 6, 12:50 am)30.09 "Hg (Jun 6, 12:50 am)
Low39 °F (Jun 12, 4:50 am)43% (Jun 7, 1:50 pm)29.71 "Hg (Jun 10, 4:20 pm)
Average57 °F73%29.94 "Hg
* Reported Jun 4 7:20 pm — Jun 19 7:20 pm, Plauen. Weather by CustomWeather, © 2024

Note: Actual official high and low records may vary slightly from our data, if they occured in-between our weather recording intervals... More about our weather records

Plauen Weather History for the Previous 24 Hours

Scroll right to see more
 ConditionsComfort  
Time TempWeatherWind HumidityBarometerVisibility
7:20 pm
Wed, Jun 19
57 °FPartly sunny.7 mph94%30.09 "HgN/A
6:50 pm55 °FSprinkles. Fog.8 mph100%30.09 "Hg3 mi
6:20 pm57 °FSprinkles. Fog.9 mph100%30.07 "Hg1 mi
5:50 pm57 °FSprinkles. Cloudy.9 mph100%30.07 "Hg5 mi
5:20 pm59 °FCloudy.8 mph94%30.07 "Hg6 mi
4:50 pm59 °FCloudy.7 mph100%30.07 "HgN/A
4:20 pm59 °FRain showers. Mostly cloudy.7 mph100%30.07 "Hg4 mi
3:50 pm59 °FPartly sunny.7 mph100%30.04 "Hg6 mi
3:20 pm59 °FHeavy rain. Fog.6 mph100%30.07 "Hg2 mi
2:20 pm61 °FRain showers. Fog.9 mph94%30.04 "Hg1 mi
1:50 pm61 °FFog.12 mph100%30.01 "Hg1 mi
1:20 pm64 °FSprinkles. Cloudy.8 mph94%30.01 "Hg5 mi
12:50 pm68 °FSprinkles. More clouds than sun.5 mph83%29.98 "HgN/A
12:20 pm68 °FMore clouds than sun.5 mph83%29.98 "HgN/A
11:50 am68 °FMore clouds than sun.2 mph78%29.98 "HgN/A
11:20 am68 °FBroken clouds.7 mph78%29.98 "HgN/A
10:50 am68 °FBroken clouds.7 mph78%29.98 "HgN/A
10:20 am68 °FBroken clouds.5 mph83%29.95 "HgN/A
9:50 am68 °FBroken clouds.5 mph83%29.95 "HgN/A
9:20 am66 °FSunny.7 mph88%29.95 "Hg10 mi
8:50 am64 °FPassing clouds.6 mph88%29.95 "HgN/A
8:20 am64 °FSunny.7 mph88%29.95 "Hg10 mi
7:20 am64 °FSunny.8 mph94%29.95 "Hg10 mi
6:50 am63 °FSunny.5 mph94%29.92 "Hg10 mi
6:20 am63 °FScattered clouds.5 mph94%29.92 "HgN/A
5:50 am61 °FScattered clouds.5 mph100%29.92 "HgN/A
5:20 am63 °FBroken clouds.5 mph94%29.92 "Hg5 mi
4:50 am63 °FPassing clouds.8 mph94%29.95 "HgN/A
4:20 am61 °FPartly cloudy.6 mph100%29.92 "HgN/A
3:50 am61 °FPassing clouds.3 mph94%29.92 "HgN/A
3:20 am61 °FPassing clouds.3 mph94%29.92 "HgN/A
2:50 am66 °FPartly cloudy.7 mph73%29.95 "HgN/A
2:20 am63 °FPassing clouds.6 mph83%29.92 "HgN/A
1:50 am64 °FPartly cloudy.3 mph78%29.89 "HgN/A
1:20 am66 °FPartly cloudy.6 mph73%29.92 "HgN/A
12:50 am64 °FPassing clouds.3 mph78%29.92 "HgN/A
12:20 am68 °FPassing clouds.7 mph69%29.89 "HgN/A
11:50 pm
Tue, Jun 18
68 °FPartly cloudy.9 mph73%29.92 "HgN/A
11:20 pm66 °FPassing clouds.6 mph78%29.92 "HgN/A
10:50 pm70 °FPassing clouds.8 mph69%29.89 "HgN/A
10:20 pm70 °FPassing clouds.6 mph64%29.89 "HgN/A
9:20 pm72 °FSunny.6 mph61%29.89 "HgN/A
8:50 pm73 °FSunny.7 mph57%29.89 "HgN/A
8:20 pm75 °FSunny.9 mph54%29.89 "HgN/A
Weather by CustomWeather, © 2024

See weather overview